Time;durP1;ratioP1;P1;durP2;ratioP2;P2;SDS_P1;SDS_P2;PMS_P1;PMS_P2;Temp;Humidity;BMP_temperature;BMP_pressure;BME280_temperature;BME280_humidity;BME280_pressure;Samples;Min_cycle;Max_cycle;Signal;HPM_P1;HPM_P2
2022/06/25 00:01:25;;;;;;;5.60;2.93;;;;;;;23.88;54.10;99266.22;4177183;28;20278;-70
2022/06/25 00:03:27;;;;;;;5.57;2.30;;;;;;;22.39;56.89;99299.72;4176174;28;20281;-69
2022/06/25 00:05:29;;;;;;;5.60;2.70;;;;;;;22.69;56.98;99274.13;4174384;28;20235;-69
2022/06/25 00:07:30;;;;;;;4.43;2.80;;;;;;;23.14;55.05;99282.03;4182550;28;20243;-69
2022/06/25 00:09:33;;;;;;;7.47;2.77;;;;;;;24.03;53.28;99279.13;4191435;28;20757;-69
2022/06/25 00:13:55;;;;;;;4.90;2.70;;;;;;;24.19;53.17;99285.50;4172796;28;20904;-69
2022/06/25 00:15:57;;;;;;;3.27;2.97;;;;;;;23.23;54.48;99311.41;4175047;28;20240;-69
2022/06/25 00:17:59;;;;;;;6.03;2.70;;;;;;;24.09;53.30;99286.19;4167383;28;20237;-70
2022/06/25 00:20:03;;;;;;;6.40;2.93;;;;;;;23.59;54.13;99299.09;4175674;28;20231;-69
2022/06/25 00:22:04;;;;;;;3.07;2.67;;;;;;;23.74;53.85;99299.22;4172878;28;20236;-69
2022/06/25 00:24:06;;;;;;;4.37;2.70;;;;;;;23.46;54.48;99294.03;4176910;28;20648;-69
2022/06/25 00:26:08;;;;;;;8.13;2.60;;;;;;;22.19;56.54;99319.16;4175996;28;20286;-69
2022/06/25 00:28:09;;;;;;;3.20;2.80;;;;;;;23.30;54.07;99307.44;4187951;28;20227;-69
2022/06/25 00:30:11;;;;;;;3.63;2.90;;;;;;;22.88;55.98;99308.00;4194389;28;20308;-69
2022/06/25 00:32:13;;;;;;;3.43;2.97;;;;;;;23.71;53.97;99304.34;4185328;28;20265;-69
2022/06/25 00:34:15;;;;;;;2.90;2.50;;;;;;;22.13;57.07;99326.38;4192878;28;20258;-69
2022/06/25 00:36:17;;;;;;;7.80;2.87;;;;;;;22.15;56.96;99318.81;4193598;28;20249;-69
2022/06/25 00:38:18;;;;;;;4.93;2.60;;;;;;;22.36;56.97;99316.47;4193391;28;20225;-69
2022/06/25 00:40:20;;;;;;;5.67;2.43;;;;;;;22.56;56.47;99314.06;4194275;28;20301;-69
2022/06/25 00:42:22;;;;;;;9.07;3.00;;;;;;;22.00;57.80;99324.81;4188302;28;20297;-69
2022/06/25 00:44:25;;;;;;;4.37;2.70;;;;;;;23.90;53.41;99313.75;4174415;28;20239;-69
2022/06/25 00:46:27;;;;;;;6.43;2.60;;;;;;;23.41;53.89;99324.63;4167772;28;20231;-69
2022/06/25 00:48:28;;;;;;;4.17;2.60;;;;;;;23.05;55.41;99329.66;4192680;28;20802;-69
2022/06/25 00:50:30;;;;;;;5.10;2.87;;;;;;;23.15;54.65;99332.50;4182017;28;20278;-69
2022/06/25 00:52:33;;;;;;;3.43;2.80;;;;;;;23.74;53.95;99322.84;4173518;28;20689;-68
2022/06/25 00:54:37;;;;;;;3.70;2.80;;;;;;;22.66;55.26;99340.50;4184257;28;20239;-69
2022/06/25 00:56:47;;;;;;;9.73;2.73;;;;;;;22.97;55.57;99319.25;4194726;28;20289;-68
2022/06/25 00:58:52;;;;;;;4.50;2.73;;;;;;;23.92;53.04;99325.19;4172779;28;20286;-69
2022/06/25 01:00:54;;;;;;;3.23;2.70;;;;;;;23.61;53.70;99336.84;4177228;28;20236;-69
2022/06/25 01:02:56;;;;;;;5.83;3.33;;;;;;;23.46;54.24;99334.72;4176625;28;20251;-69
2022/06/25 01:04:57;;;;;;;4.87;2.50;;;;;;;23.13;54.89;99336.50;4175457;28;20924;-69
2022/06/25 01:07:00;;;;;;;4.30;2.80;;;;;;;23.44;54.66;99317.91;4181097;28;20243;-69
2022/06/25 01:09:02;;;;;;;7.50;3.20;;;;;;;24.09;52.68;99322.34;4193207;28;20239;-69
2022/06/25 01:11:04;;;;;;;6.80;2.60;;;;;;;24.77;51.17;99316.31;4193372;28;20231;-69
2022/06/25 01:13:06;;;;;;;6.10;2.83;;;;;;;24.90;50.95;99325.88;4179886;28;20240;-69
2022/06/25 01:15:16;;;;;;;4.47;2.80;;;;;;;24.73;51.30;99325.22;4176509;28;20314;-70
2022/06/25 01:17:18;;;;;;;6.20;3.13;;;;;;;24.00;52.49;99333.94;4171227;28;20254;-69
2022/06/25 01:19:19;;;;;;;3.50;2.40;;;;;;;24.54;51.42;99322.13;4177404;28;20594;-69
2022/06/25 01:21:21;;;;;;;5.10;2.93;;;;;;;24.02;52.19;99332.59;4177868;28;20268;-69
2022/06/25 01:23:23;;;;;;;6.20;2.97;;;;;;;23.57;53.29;99337.34;4192405;28;20254;-69
2022/06/25 01:25:25;;;;;;;4.20;2.70;;;;;;;24.17;52.26;99323.78;4192315;28;20227;-69
2022/06/25 01:27:26;;;;;;;5.40;2.67;;;;;;;22.54;55.60;99328.91;4193011;28;20239;-69
2022/06/25 01:29:28;;;;;;;4.63;2.90;;;;;;;24.60;51.48;99307.50;4192659;28;20235;-69
2022/06/25 01:31:30;;;;;;;5.20;2.87;;;;;;;23.77;53.09;99330.44;4192732;28;20692;-69
2022/06/25 01:33:31;;;;;;;7.37;2.53;;;;;;;23.18;53.84;99328.44;4192678;28;20270;-69
2022/06/25 01:35:34;;;;;;;5.37;2.73;;;;;;;23.64;52.91;99337.13;4191840;28;20231;-69
2022/06/25 01:37:36;;;;;;;5.80;2.87;;;;;;;23.41;54.68;99307.56;4194016;28;20235;-69
2022/06/25 01:39:38;;;;;;;3.13;2.60;;;;;;;23.27;54.52;99312.56;4193420;28;20293;-69
2022/06/25 01:41:40;;;;;;;4.33;2.50;;;;;;;24.52;51.83;99308.81;4192275;28;20269;-69
2022/06/25 01:43:41;;;;;;;6.20;2.90;;;;;;;24.56;51.45;99320.78;4170213;28;20878;-69
2022/06/25 01:45:43;;;;;;;5.27;2.50;;;;;;;24.21;52.57;99319.47;4166981;28;20239;-69
2022/06/25 01:47:45;;;;;;;7.60;2.80;;;;;;;24.12;52.65;99327.22;4177858;28;20767;-69
2022/06/25 01:49:46;;;;;;;4.53;3.03;;;;;;;24.89;51.07;99312.59;4192895;28;20243;-70
2022/06/25 01:51:49;;;;;;;7.77;2.93;;;;;;;24.76;50.49;99333.69;4177714;28;20302;-70
2022/06/25 01:53:50;;;;;;;6.13;3.30;;;;;;;25.15;50.00;99327.09;4181479;28;20266;-69
2022/06/25 01:55:52;;;;;;;4.63;2.90;;;;;;;24.88;50.38;99333.50;4192295;28;20239;-69
2022/06/25 01:57:54;;;;;;;5.63;2.80;;;;;;;24.95;50.21;99339.53;4180876;28;20238;-69
2022/06/25 01:59:56;;;;;;;8.70;3.50;;;;;;;25.07;50.29;99336.59;4175618;28;20690;-69
2022/06/25 02:01:57;;;;;;;6.90;3.10;;;;;;;25.44;49.70;99329.38;4180679;28;20669;-69
2022/06/25 02:03:59;;;;;;;5.10;3.10;;;;;;;25.26;49.65;99342.38;4176371;28;20236;-69
2022/06/25 02:06:01;;;;;;;8.17;3.70;;;;;;;25.09;50.06;99341.75;4191108;28;20241;-69
2022/06/25 02:08:02;;;;;;;7.60;3.40;;;;;;;25.13;50.31;99330.06;4180128;28;20240;-69
2022/06/25 02:10:05;;;;;;;7.53;3.40;;;;;;;25.07;50.06;99333.88;4176311;28;20239;-69
2022/06/25 02:12:08;;;;;;;5.57;3.37;;;;;;;25.39;49.68;99333.75;4173377;28;20243;-70
2022/06/25 02:14:09;;;;;;;6.73;3.83;;;;;;;24.41;51.80;99320.69;4189218;28;20231;-69
2022/06/25 02:16:11;;;;;;;6.90;3.53;;;;;;;24.47;51.42;99333.25;4182651;28;20227;-69
2022/06/25 02:18:13;;;;;;;7.20;3.10;;;;;;;24.67;50.91;99327.13;4177952;28;20231;-69
2022/06/25 02:20:15;;;;;;;4.00;3.10;;;;;;;25.17;50.04;99327.63;4191676;28;20289;-69
2022/06/25 02:22:17;;;;;;;6.87;3.13;;;;;;;25.17;49.75;99343.97;4178107;28;20658;-69
2022/06/25 02:24:19;;;;;;;10.50;3.50;;;;;;;24.83;50.60;99336.19;4174705;28;20235;-69
2022/06/25 02:26:20;;;;;;;5.10;3.10;;;;;;;25.04;50.19;99339.84;4176007;28;20292;-69
2022/06/25 02:28:22;;;;;;;6.37;3.20;;;;;;;24.71;50.82;99341.00;4175970;28;20232;-70
2022/06/25 02:30:24;;;;;;;5.87;3.50;;;;;;;24.97;49.68;99339.25;4175150;28;20228;-70
2022/06/25 02:32:26;;;;;;;8.40;4.03;;;;;;;25.32;49.38;99324.97;4174922;28;20254;-70
2022/06/25 02:34:28;;;;;;;9.23;3.70;;;;;;;25.20;49.74;99332.56;4175094;28;20301;-70
2022/06/25 02:36:29;;;;;;;6.93;3.40;;;;;;;24.31;51.17;99329.56;4173991;28;20925;-70
2022/06/25 02:38:31;;;;;;;4.07;3.00;;;;;;;24.78;50.52;99328.81;4175475;28;20227;-69
2022/06/25 02:40:33;;;;;;;8.23;3.63;;;;;;;24.75;50.19;99328.50;4174851;28;20224;-70
2022/06/25 02:42:35;;;;;;;7.20;4.00;;;;;;;24.49;50.66;99334.59;4174320;28;20232;-70
2022/06/25 02:44:37;;;;;;;5.50;3.63;;;;;;;24.84;49.83;99327.78;4174559;28;20232;-71
2022/06/25 02:46:39;;;;;;;13.63;3.33;;;;;;;24.92;50.02;99329.19;4175844;28;20239;-70
2022/06/25 02:48:40;;;;;;;5.60;3.80;;;;;;;24.87;50.12;99318.28;4173524;28;20232;-70
2022/06/25 02:50:42;;;;;;;5.93;3.60;;;;;;;24.18;51.43;99327.34;4182446;28;20281;-70
2022/06/25 02:52:44;;;;;;;7.67;3.33;;;;;;;23.97;52.18;99326.31;4170764;28;20227;-70
2022/06/25 02:54:48;;;;;;;6.53;3.30;;;;;;;24.19;51.46;99323.53;4182827;28;20265;-70
2022/06/25 02:59:17;;;;;;;4.80;3.17;;;;;;;22.12;55.23;99337.44;4171242;28;20224;-70
2022/06/25 03:01:20;;;;;;;6.83;3.50;;;;;;;22.97;53.88;99311.94;4187512;28;20235;-70
2022/06/25 03:03:21;;;;;;;11.97;3.57;;;;;;;23.62;52.82;99306.72;4191598;28;20917;-70
2022/06/25 03:05:24;;;;;;;3.57;2.93;;;;;;;23.67;52.44;99311.34;4188996;28;20231;-71
2022/06/25 03:07:26;;;;;;;4.17;3.33;;;;;;;23.89;52.25;99316.72;4176323;28;20278;-70
2022/06/25 03:09:27;;;;;;;9.67;3.60;;;;;;;24.61;50.54;99312.66;4192532;28;20656;-70
2022/06/25 03:11:29;;;;;;;7.10;3.50;;;;;;;24.23;51.45;99321.94;4191338;28;20230;-70
2022/06/25 03:13:34;;;;;;;6.70;3.60;;;;;;;23.99;51.67;99332.28;4190262;28;20292;-70
2022/06/25 03:15:36;;;;;;;4.70;3.63;;;;;;;24.11;51.33;99330.25;4190952;28;20319;-69
2022/06/25 03:17:37;;;;;;;5.53;3.50;;;;;;;24.05;51.36;99342.13;4192088;28;20235;-69
2022/06/25 03:19:39;;;;;;;7.30;3.50;;;;;;;23.59;52.66;99339.78;4190271;28;20239;-69
2022/06/25 03:21:41;;;;;;;7.37;3.67;;;;;;;23.36;52.58;99338.16;4191114;28;20231;-69
2022/06/25 03:23:42;;;;;;;7.20;3.30;;;;;;;23.77;51.87;99335.88;4188715;28;20324;-69
2022/06/25 03:25:44;;;;;;;7.77;3.37;;;;;;;23.60;52.03;99346.03;4190498;28;20265;-69
2022/06/25 03:27:46;;;;;;;6.73;3.40;;;;;;;23.98;51.50;99338.81;4191687;28;20289;-69
2022/06/25 03:29:47;;;;;;;3.80;3.10;;;;;;;23.57;52.30;99348.19;4180799;28;20239;-69
2022/06/25 03:31:49;;;;;;;4.67;3.47;;;;;;;23.75;51.97;99338.88;4191155;28;20598;-69
2022/06/25 03:33:51;;;;;;;7.07;3.43;;;;;;;23.59;52.01;99353.38;4190259;28;20945;-69
2022/06/25 03:35:53;;;;;;;6.93;3.20;;;;;;;23.57;52.09;99348.19;4191260;28;20262;-69
2022/06/25 03:37:54;;;;;;;4.63;3.23;;;;;;;23.84;51.73;99332.97;4191166;28;20235;-70
2022/06/25 03:39:57;;;;;;;5.97;3.40;;;;;;;23.97;51.21;99340.69;4177205;28;20737;-70
2022/06/25 03:41:58;;;;;;;6.87;3.40;;;;;;;24.21;50.70;99341.22;4185772;28;20277;-70
2022/06/25 03:44:00;;;;;;;4.80;2.93;;;;;;;24.34;50.45;99336.41;4190023;28;20773;-69
2022/06/25 03:46:02;;;;;;;8.60;3.37;;;;;;;24.28;50.49;99344.53;4193694;28;20235;-69
2022/06/25 03:48:04;;;;;;;9.20;3.50;;;;;;;24.27;50.70;99342.88;4181600;28;20292;-69
2022/06/25 03:50:07;;;;;;;7.33;3.23;;;;;;;24.47;50.61;99344.09;4193112;28;20652;-69
2022/06/25 03:52:09;;;;;;;8.23;3.33;;;;;;;24.58;50.23;99353.13;4177487;28;20758;-69
2022/06/25 03:54:10;;;;;;;4.87;3.40;;;;;;;24.42;50.16;99357.66;4186973;28;20688;-69
2022/06/25 03:56:12;;;;;;;5.47;2.97;;;;;;;24.29;50.54;99357.03;4193647;28;20219;-69
2022/06/25 03:58:14;;;;;;;5.57;2.70;;;;;;;24.60;50.43;99353.72;4191984;28;20223;-69
2022/06/25 04:00:16;;;;;;;7.73;2.83;;;;;;;24.65;49.86;99362.72;4173412;28;20231;-69
2022/06/25 04:02:18;;;;;;;5.03;3.00;;;;;;;24.81;49.44;99368.28;4181712;28;20227;-69
2022/06/25 04:04:19;;;;;;;4.37;3.27;;;;;;;24.68;49.79;99367.63;4193958;28;20667;-69
2022/06/25 04:06:21;;;;;;;6.03;3.10;;;;;;;24.65;49.72;99378.22;4193981;28;20231;-70
2022/06/25 04:08:23;;;;;;;6.13;3.50;;;;;;;24.61;49.88;99377.09;4178497;28;20232;-70
2022/06/25 04:10:25;;;;;;;3.97;3.07;;;;;;;24.44;50.49;99382.66;4178219;28;20297;-69
2022/06/25 04:12:34;;;;;;;6.00;3.70;;;;;;;24.78;49.59;99369.59;4193722;28;20229;-69
2022/06/25 04:14:36;;;;;;;7.90;3.70;;;;;;;24.66;50.13;99377.13;4192997;28;20285;-71
2022/06/25 04:16:39;;;;;;;5.73;3.10;;;;;;;24.07;51.15;99381.50;4180390;28;20618;-70
2022/06/25 04:18:40;;;;;;;3.73;3.30;;;;;;;24.38;50.39;99375.53;4169675;28;20235;-70
2022/06/25 04:20:42;;;;;;;5.37;3.40;;;;;;;24.54;50.13;99376.50;4167995;28;20233;-70
2022/06/25 04:22:44;;;;;;;5.50;3.30;;;;;;;24.94;49.44;99375.97;4193974;28;20592;-70
2022/06/25 04:24:45;;;;;;;7.47;3.40;;;;;;;25.22;49.10;99371.19;4193247;28;20281;-70
2022/06/25 04:26:47;;;;;;;8.17;3.97;;;;;;;25.20;48.87;99374.16;4188896;28;20228;-70
2022/06/25 04:29:04;;;;;;;4.43;3.17;;;;;;;24.74;49.56;99392.94;4173365;28;20366;-71
2022/06/25 04:31:06;;;;;;;7.13;3.40;;;;;;;24.46;50.28;99386.78;4169269;28;20301;-70
2022/06/25 04:33:08;;;;;;;11.00;3.43;;;;;;;24.82;49.62;99378.88;4188164;28;20310;-70
2022/06/25 04:35:10;;;;;;;4.67;3.13;;;;;;;24.62;50.15;99386.88;4193053;28;20259;-69
2022/06/25 04:37:12;;;;;;;4.23;3.23;;;;;;;23.72;51.69;99390.13;4194615;28;20227;-70
2022/06/25 04:39:14;;;;;;;9.53;3.30;;;;;;;24.37;50.60;99371.22;4193616;28;20224;-70
2022/06/25 04:41:16;;;;;;;7.03;3.20;;;;;;;23.87;51.82;99379.44;4193704;28;20288;-70
2022/06/25 04:43:18;;;;;;;8.80;3.77;;;;;;;23.85;51.60;99376.16;4191638;28;20285;-70
2022/06/25 04:45:20;;;;;;;8.43;2.80;;;;;;;23.28;52.52;99376.56;4192945;28;20231;-70
2022/06/25 04:47:21;;;;;;;3.63;2.97;;;;;;;23.85;51.89;99368.00;4194121;28;20293;-71
2022/06/25 04:49:23;;;;;;;5.70;2.80;;;;;;;23.60;52.47;99365.84;4193258;28;20231;-70
2022/06/25 04:51:26;;;;;;;3.20;2.30;;;;;;;23.04;54.05;99360.53;4193655;28;20226;-70
2022/06/25 04:53:28;;;;;;;4.27;2.50;;;;;;;22.97;54.14;99351.78;4193594;28;20227;-70
2022/06/25 04:55:30;;;;;;;2.57;2.37;;;;;;;23.36;53.39;99349.81;4183587;28;20235;-70
2022/06/25 04:57:31;;;;;;;3.03;2.60;;;;;;;22.89;54.04;99350.28;4183126;28;20790;-71
2022/06/25 04:59:33;;;;;;;3.47;2.23;;;;;;;22.71;55.19;99347.84;4194233;28;20544;-70
2022/06/25 05:01:35;;;;;;;5.73;2.20;;;;;;;23.99;52.54;99345.88;4194254;28;20239;-71
2022/06/25 05:03:37;;;;;;;4.90;2.30;;;;;;;24.30;51.51;99345.06;4192118;28;20239;-69
2022/06/25 05:05:39;;;;;;;3.63;2.30;;;;;;;22.25;55.80;99365.03;4193004;28;20239;-69
2022/06/25 05:07:40;;;;;;;6.70;2.67;;;;;;;22.42;56.06;99351.53;4193481;28;20247;-70
2022/06/25 05:09:42;;;;;;;2.67;2.40;;;;;;;22.58;55.97;99354.47;4185064;28;20588;-69
2022/06/25 05:11:44;;;;;;;4.67;2.10;;;;;;;23.98;53.30;99338.81;4192867;28;20288;-70
2022/06/25 05:13:46;;;;;;;3.20;2.27;;;;;;;24.03;53.15;99344.28;4193615;28;20239;-69
2022/06/25 05:15:47;;;;;;;6.53;2.70;;;;;;;24.05;52.21;99370.09;4192413;28;20235;-70
2022/06/25 05:17:49;;;;;;;2.60;2.40;;;;;;;24.85;51.05;99361.22;4193712;28;20271;-69
2022/06/25 05:19:51;;;;;;;6.07;2.47;;;;;;;25.11;50.62;99358.63;4194251;28;20293;-69
2022/06/25 05:21:52;;;;;;;4.33;2.73;;;;;;;25.53;49.33;99371.34;4180988;28;20235;-69
2022/06/25 05:23:54;;;;;;;5.23;2.33;;;;;;;25.11;50.78;99381.22;4174686;28;20247;-69
2022/06/25 05:25:56;;;;;;;3.73;2.50;;;;;;;24.94;50.55;99381.41;4186914;28;20274;-70
2022/06/25 05:27:57;;;;;;;4.57;2.80;;;;;;;25.15;50.50;99381.50;4176905;28;20302;-69
2022/06/25 05:30:00;;;;;;;3.07;2.40;;;;;;;24.87;51.27;99388.97;4177693;28;20239;-70
2022/06/25 05:32:01;;;;;;;5.33;2.53;;;;;;;25.36;50.25;99382.44;4178163;28;20237;-69
2022/06/25 05:34:03;;;;;;;2.60;2.20;;;;;;;24.76;51.05;99393.50;4175591;28;20758;-70
2022/06/25 05:36:05;;;;;;;3.60;2.40;;;;;;;25.36;50.24;99377.00;4176661;28;20236;-69
2022/06/25 05:38:07;;;;;;;3.97;2.63;;;;;;;23.53;54.28;99392.34;4176711;28;20242;-69
2022/06/25 05:40:10;;;;;;;4.60;2.40;;;;;;;24.81;51.96;99373.72;4176091;28;20854;-69
2022/06/25 05:42:11;;;;;;;5.20;2.83;;;;;;;25.35;50.50;99365.25;4175954;28;20281;-69
2022/06/25 05:44:13;;;;;;;7.50;2.20;;;;;;;24.86;51.65;99379.97;4177048;28;20614;-70
2022/06/25 05:46:15;;;;;;;4.60;2.70;;;;;;;25.15;51.22;99376.88;4175671;28;20224;-70
2022/06/25 05:48:17;;;;;;;4.30;2.37;;;;;;;24.67;52.39;99395.88;4171913;28;20636;-69
2022/06/25 05:50:19;;;;;;;4.07;2.60;;;;;;;24.18;53.65;99395.25;4169539;28;20256;-70
2022/06/25 05:52:21;;;;;;;3.83;2.27;;;;;;;24.85;52.05;99385.69;4176992;28;20228;-69
2022/06/25 05:54:22;;;;;;;5.03;2.37;;;;;;;25.37;51.22;99387.63;4168375;28;20277;-69
2022/06/25 05:56:24;;;;;;;4.55;2.50;;;;;;;25.78;49.96;99390.47;4180004;28;20223;-69
2022/06/25 05:58:26;;;;;;;4.13;2.30;;;;;;;25.74;50.36;99394.78;4192139;28;20232;-70
2022/06/25 06:00:27;;;;;;;2.40;2.20;;;;;;;25.73;49.93;99387.72;4176955;28;20231;-69
2022/06/25 06:02:29;;;;;;;5.13;2.37;;;;;;;25.58;50.97;99393.13;4181608;28;20238;-69
2022/06/25 06:04:31;;;;;;;7.00;2.53;;;;;;;25.95;49.80;99403.06;4175525;28;20704;-70
2022/06/25 06:06:35;;;;;;;3.43;2.30;;;;;;;24.60;53.08;99413.50;4191859;28;20250;-69
2022/06/25 06:08:39;;;;;;;2.43;2.10;;;;;;;24.44;53.18;99394.34;4192015;28;20716;-70
2022/06/25 06:10:40;;;;;;;5.65;2.90;;;;;;;25.17;51.42;99387.50;4191126;28;20284;-69
2022/06/25 06:12:42;;;;;;;5.00;2.40;;;;;;;26.33;49.69;99379.09;4191235;28;20227;-69
2022/06/25 06:14:44;;;;;;;5.50;2.63;;;;;;;25.71;51.67;99376.28;4190801;28;20231;-70
2022/06/25 06:16:45;;;;;;;11.37;2.40;;;;;;;25.81;50.77;99385.56;4192210;28;20235;-70
2022/06/25 06:18:47;;;;;;;3.83;2.28;;;;;;;25.81;51.11;99388.28;4192339;28;20230;-69
2022/06/25 06:20:49;;;;;;;4.97;1.80;;;;;;;25.66;50.68;99402.66;4192822;28;20243;-69
2022/06/25 06:22:51;;;;;;;6.40;2.10;;;;;;;25.18;51.97;99406.25;4191368;28;20234;-69
2022/06/25 06:24:52;;;;;;;4.53;1.97;;;;;;;25.54;51.35;99406.47;4191655;28;20239;-70
2022/06/25 06:26:54;;;;;;;4.07;2.90;;;;;;;23.72;55.62;99418.09;4192216;28;20662;-70
2022/06/25 06:28:56;;;;;;;3.77;1.80;;;;;;;24.58;54.16;99402.91;4191888;28;20243;-69
2022/06/25 06:30:57;;;;;;;4.72;2.10;;;;;;;24.25;54.78;99399.38;4192374;28;20291;-69
2022/06/25 06:32:59;;;;;;;2.53;1.70;;;;;;;25.29;51.83;99390.00;4192026;28;20325;-69
2022/06/25 06:35:01;;;;;;;2.33;2.10;;;;;;;24.77;52.90;99403.31;4189881;28;20265;-69
2022/06/25 06:37:02;;;;;;;2.50;2.00;;;;;;;25.34;52.27;99390.00;4192845;28;20296;-70
2022/06/25 06:39:04;;;;;;;5.33;2.27;;;;;;;24.69;53.36;99404.59;4192357;28;20604;-70
2022/06/25 06:41:06;;;;;;;2.80;1.70;;;;;;;24.64;53.25;99414.63;4191567;28;20289;-69
2022/06/25 06:43:08;;;;;;;4.87;1.80;;;;;;;25.32;52.41;99401.16;4177035;28;20232;-70
2022/06/25 06:45:10;;;;;;;3.05;1.83;;;;;;;26.00;50.95;99403.06;4191456;28;20227;-68
2022/06/25 06:47:11;;;;;;;2.03;1.90;;;;;;;25.93;50.41;99419.63;4191545;28;20223;-70
2022/06/25 06:49:13;;;;;;;2.60;1.80;;;;;;;25.59;50.10;99424.69;4192097;28;20628;-68
2022/06/25 06:51:15;;;;;;;2.13;1.75;;;;;;;25.91;50.33;99415.53;4192550;28;20227;-68
2022/06/25 06:53:16;;;;;;;1.88;1.75;;;;;;;25.36;50.78;99415.09;4190457;28;20237;-68
2022/06/25 06:55:18;;;;;;;2.75;1.45;;;;;;;26.34;49.31;99413.44;4189787;28;20838;-70
2022/06/25 06:57:20;;;;;;;3.08;1.70;;;;;;;26.16;49.43;99418.31;4174578;28;20293;-69
2022/06/25 06:59:22;;;;;;;2.60;1.60;;;;;;;25.36;51.39;99417.81;4180294;28;20231;-70
2022/06/25 07:01:23;;;;;;;2.17;1.73;;;;;;;26.14;50.17;99406.06;4191997;28;20231;-69
2022/06/25 07:03:25;;;;;;;2.97;1.90;;;;;;;26.14;50.25;99415.06;4190687;28;20300;-69
2022/06/25 07:05:30;;;;;;;5.15;1.80;;;;;;;26.04;49.99;99404.16;4190883;28;20293;-69
2022/06/25 07:07:32;;;;;;;2.47;1.80;;;;;;;26.24;49.39;99399.81;4184100;28;20293;-69
2022/06/25 07:09:34;;;;;;;3.33;1.48;;;;;;;25.89;49.63;99398.66;4175526;28;20242;-69
2022/06/25 07:11:36;;;;;;;2.38;1.60;;;;;;;25.79;50.50;99396.72;4173949;28;20297;-69
2022/06/25 07:13:37;;;;;;;1.95;1.65;;;;;;;25.75;49.73;99407.34;4174651;28;20240;-69
2022/06/25 07:15:42;;;;;;;1.65;1.55;;;;;;;25.82;49.61;99401.63;4174617;28;20766;-70
2022/06/25 07:17:43;;;;;;;1.63;1.52;;;;;;;25.79;49.45;99413.88;4185449;28;20755;-70
2022/06/25 07:19:45;;;;;;;1.50;1.40;;;;;;;25.46;50.43;99398.81;4194159;28;20235;-70
2022/06/25 07:21:47;;;;;;;2.42;1.58;;;;;;;26.07;49.43;99403.59;4182406;28;20289;-69
2022/06/25 07:23:49;;;;;;;2.35;1.60;;;;;;;26.42;48.94;99404.72;4177000;28;20239;-69
2022/06/25 07:25:50;;;;;;;1.65;1.33;;;;;;;25.23;51.28;99411.72;4177910;28;20297;-70
2022/06/25 07:27:52;;;;;;;3.13;1.70;;;;;;;26.53;48.60;99391.91;4189364;28;20284;-69
2022/06/25 07:29:54;;;;;;;2.92;1.58;;;;;;;26.58;48.97;99397.38;4194927;28;20239;-69
2022/06/25 07:31:56;;;;;;;1.42;1.30;;;;;;;26.76;47.53;99398.72;4195117;28;20257;-69
2022/06/25 07:33:58;;;;;;;2.55;1.42;;;;;;;27.33;46.49;99396.66;4192933;28;20235;-69
2022/06/25 07:36:00;;;;;;;1.30;1.20;;;;;;;26.98;47.17;99406.56;4193433;28;20238;-69
2022/06/25 07:38:02;;;;;;;1.40;1.30;;;;;;;27.41;46.69;99397.97;4195434;28;20315;-69
2022/06/25 07:40:04;;;;;;;1.55;1.45;;;;;;;27.25;47.77;99395.31;4195873;28;20288;-69
2022/06/25 07:42:06;;;;;;;1.38;1.27;;;;;;;27.35;46.98;99394.47;4189348;28;20309;-70
2022/06/25 07:44:08;;;;;;;1.75;1.40;;;;;;;27.03;46.93;99405.75;4176157;28;20824;-70
2022/06/25 07:46:09;;;;;;;4.63;1.50;;;;;;;26.67;47.79;99401.19;4168789;28;20258;-70
2022/06/25 07:48:11;;;;;;;1.40;1.30;;;;;;;27.49;46.34;99382.94;4191326;28;20300;-69
2022/06/25 07:52:33;;;;;;;3.38;1.50;;;;;;;25.97;48.54;99389.97;4174877;28;20227;-69
2022/06/25 07:54:35;;;;;;;2.15;1.30;;;;;;;26.99;47.16;99371.91;4184390;28;20235;-69
2022/06/25 07:56:37;;;;;;;3.17;1.67;;;;;;;27.10;46.62;99387.19;4193442;28;20734;-69
2022/06/25 07:58:39;;;;;;;2.25;1.70;;;;;;;26.68;48.05;99374.72;4178113;28;20282;-69
2022/06/25 08:00:40;;;;;;;2.05;1.40;;;;;;;27.74;45.19;99371.09;4177504;28;20278;-70
2022/06/25 08:02:42;;;;;;;3.72;1.60;;;;;;;27.28;47.79;99374.03;4169136;28;20228;-69
2022/06/25 08:04:44;;;;;;;1.80;1.40;;;;;;;27.30;46.22;99371.81;4177571;28;20232;-70
2022/06/25 08:06:46;;;;;;;3.65;1.88;;;;;;;27.74;45.51;99384.75;4192754;28;20292;-70
2022/06/25 08:08:48;;;;;;;1.40;1.30;;;;;;;27.57;46.31;99385.91;4194570;28;20238;-69
2022/06/25 08:10:51;;;;;;;1.70;1.52;;;;;;;26.70;47.11;99386.97;4193586;28;20389;-69
2022/06/25 08:12:55;;;;;;;3.50;1.30;;;;;;;26.36;48.06;99385.91;4192853;28;20239;-69
2022/06/25 08:14:56;;;;;;;1.90;1.50;;;;;;;27.05;47.67;99376.28;4193720;28;20239;-69
2022/06/25 08:16:58;;;;;;;1.83;1.50;;;;;;;26.78;48.47;99365.72;4194573;28;20321;-73
2022/06/25 08:19:00;;;;;;;3.38;1.48;;;;;;;28.08;45.23;99373.03;4183437;28;20312;-69
2022/06/25 08:21:01;;;;;;;1.73;1.40;;;;;;;28.60;45.05;99376.16;4186351;28;20322;-69
2022/06/25 08:23:03;;;;;;;3.53;1.52;;;;;;;28.53;45.54;99390.19;4171053;28;20232;-69
2022/06/25 08:25:07;;;;;;;2.50;1.55;;;;;;;28.29;44.76;99379.16;4176465;28;20818;-69
2022/06/25 08:27:10;;;;;;;2.88;1.40;;;;;;;28.31;45.68;99387.88;4179140;28;20231;-69
2022/06/25 08:29:11;;;;;;;1.50;1.40;;;;;;;28.28;44.96;99383.81;4178150;28;20326;-69
2022/06/25 08:31:13;;;;;;;1.50;1.40;;;;;;;29.21;43.17;99382.94;4177777;28;20231;-70
2022/06/25 08:33:15;;;;;;;1.55;1.42;;;;;;;29.16;43.41;99393.91;4192636;28;20941;-69
2022/06/25 08:35:17;;;;;;;2.17;1.50;;;;;;;29.26;43.95;99386.41;4192971;28;20296;-69
2022/06/25 08:37:26;;;;;;;1.50;1.40;;;;;;;26.88;46.68;99391.03;4193311;28;20854;-70
2022/06/25 08:39:28;;;;;;;1.88;1.73;;;;;;;26.94;47.25;99380.13;4194144;28;20238;-70
2022/06/25 08:41:30;;;;;;;3.05;1.73;;;;;;;27.39;46.61;99370.16;4193262;28;20239;-70
2022/06/25 08:43:32;;;;;;;1.30;1.25;;;;;;;28.39;44.54;99357.19;4191968;28;20255;-70
2022/06/25 08:45:33;;;;;;;3.08;1.70;;;;;;;28.24;45.97;99363.66;4190241;28;20662;-70
2022/06/25 08:47:43;;;;;;;3.80;1.60;;;;;;;27.17;46.87;99359.59;4193542;28;20235;-69
2022/06/25 08:49:45;;;;;;;3.20;1.50;;;;;;;27.24;47.62;99350.00;4179263;28;20236;-69
2022/06/25 08:51:48;;;;;;;2.60;1.40;;;;;;;26.52;47.55;99352.09;4175072;28;20309;-69
2022/06/25 08:53:51;;;;;;;2.00;1.40;;;;;;;26.58;48.46;99344.75;4163885;28;20241;-69
2022/06/25 08:55:54;;;;;;;5.00;1.60;;;;;;;27.74;46.90;99346.50;4174537;28;20603;-69
2022/06/25 08:57:57;;;;;;;2.97;1.55;;;;;;;27.41;47.17;99355.09;4187129;28;20635;-69
2022/06/25 08:59:59;;;;;;;2.92;1.55;;;;;;;28.21;46.74;99345.09;4193243;28;20242;-70
2022/06/25 09:02:01;;;;;;;1.73;1.52;;;;;;;28.51;44.92;99354.91;4193315;28;20727;-70
2022/06/25 09:04:03;;;;;;;2.05;1.50;;;;;;;28.66;44.97;99345.75;4192570;28;20238;-69
2022/06/25 09:06:18;;;;;;;4.57;1.75;;;;;;;28.55;45.38;99349.69;4192972;28;20231;-69
2022/06/25 09:08:20;;;;;;;2.80;1.80;;;;;;;27.55;46.05;99362.69;4193065;28;20231;-69
2022/06/25 09:10:23;;;;;;;1.77;1.40;;;;;;;28.31;45.53;99339.53;4191774;28;20231;-69
2022/06/25 09:12:28;;;;;;;2.40;1.42;;;;;;;28.43;45.68;99343.75;4193111;28;20254;-69
2022/06/25 09:14:31;;;;;;;1.88;1.77;;;;;;;29.31;43.89;99344.47;4192132;28;20314;-69
2022/06/25 09:16:32;;;;;;;2.22;1.25;;;;;;;27.66;45.19;99352.56;4187765;28;20233;-69
2022/06/25 09:18:34;;;;;;;1.85;1.30;;;;;;;29.55;42.78;99347.16;4193821;28;20269;-69
2022/06/25 09:20:59;;;;;;;2.00;1.70;;;;;;;29.58;43.40;99353.97;4192910;28;20578;-69
2022/06/25 09:23:06;;;;;;;1.65;1.48;;;;;;;29.01;43.45;99359.34;4187578;28;21532;-69
2022/06/25 09:25:08;;;;;;;1.90;1.63;;;;;;;29.51;42.56;99361.72;4192350;28;20238;-69
2022/06/25 09:27:11;;;;;;;1.48;1.38;;;;;;;29.98;40.38;99352.56;4191958;28;20227;-69
2022/06/25 09:29:12;;;;;;;1.50;1.40;;;;;;;30.10;41.73;99356.78;4192677;28;20235;-69
2022/06/25 09:31:36;;;;;;;1.88;1.50;;;;;;;28.14;44.44;99355.47;4193496;28;20684;-69
2022/06/25 09:33:40;;;;;;;1.30;1.20;;;;;;;28.51;44.16;99343.13;4192095;28;20231;-69
2022/06/25 09:35:42;;;;;;;1.60;1.50;;;;;;;29.40;42.24;99325.44;4192779;28;20227;-69
2022/06/25 09:37:43;;;;;;;3.42;1.55;;;;;;;29.53;42.54;99323.91;4191311;28;20227;-69
2022/06/25 09:39:47;;;;;;;2.90;1.45;;;;;;;27.06;44.55;99323.34;4193220;28;20239;-69
2022/06/25 09:41:56;;;;;;;1.65;1.50;;;;;;;27.55;44.34;99310.81;4191819;28;20280;-70
2022/06/25 09:44:15;;;;;;;1.55;1.45;;;;;;;28.69;43.70;99306.06;4192061;28;20932;-69